CheckWX is a tool to help pilots better visualize weather data.  It is not intended as a substitute for an official pre-flight weather briefing.

13:31:55 UTC

FBGZ TAF
Ghanzi Airport
Ghanzi, Botswana
FBGZ 240900Z 2412/2421 16007KT CAVOK

May-24@
12:00 UTC

May-24 @ 12:00 UTC

May-24@
21:00 UTC

May-24 @ 21:00 UTC

FBGZ 240900Z 2412/2421 16007KT CAVOK
Wind
  • 160° at 7 KTS
Conditions
No significant weather
Cloud Levels
  • No significant clouds